sensor_id;sensor_type;location;lat;lon;timestamp;P1;durP1;ratioP1;P2;durP2;ratioP2
55314;SDS011;41619;42.816;23.226;2023-03-01T00:02:00;5.13;;;2.30;;
55314;SDS011;41619;42.816;23.226;2023-03-01T00:04:26;3.38;;;2.40;;
55314;SDS011;41619;42.816;23.226;2023-03-01T00:06:52;3.05;;;2.30;;
55314;SDS011;41619;42.816;23.226;2023-03-01T00:09:18;3.60;;;2.20;;
55314;SDS011;41619;42.816;23.226;2023-03-01T00:11:44;2.95;;;2.20;;
55314;SDS011;41619;42.816;23.226;2023-03-01T00:14:10;3.97;;;2.30;;
55314;SDS011;41619;42.816;23.226;2023-03-01T00:16:36;2.78;;;2.35;;
55314;SDS011;41619;42.816;23.226;2023-03-01T00:19:04;5.05;;;2.10;;
55314;SDS011;41619;42.816;23.226;2023-03-01T00:21:30;10.13;;;4.60;;
55314;SDS011;41619;42.816;23.226;2023-03-01T00:23:56;2.58;;;2.20;;
55314;SDS011;41619;42.816;23.226;2023-03-01T00:26:23;2.20;;;1.63;;
55314;SDS011;41619;42.816;23.226;2023-03-01T00:28:50;2.45;;;2.08;;
55314;SDS011;41619;42.816;23.226;2023-03-01T00:31:17;4.93;;;2.25;;
55314;SDS011;41619;42.816;23.226;2023-03-01T00:33:44;2.58;;;2.03;;
55314;SDS011;41619;42.816;23.226;2023-03-01T00:36:11;2.63;;;2.00;;
55314;SDS011;41619;42.816;23.226;2023-03-01T00:38:39;3.25;;;2.17;;
55314;SDS011;41619;42.816;23.226;2023-03-01T00:41:07;3.57;;;2.17;;
55314;SDS011;41619;42.816;23.226;2023-03-01T00:43:35;2.55;;;2.15;;
55314;SDS011;41619;42.816;23.226;2023-03-01T00:46:05;2.45;;;1.98;;
55314;SDS011;41619;42.816;23.226;2023-03-01T00:48:41;3.08;;;2.13;;
55314;SDS011;41619;42.816;23.226;2023-03-01T00:51:08;3.63;;;2.17;;
55314;SDS011;41619;42.816;23.226;2023-03-01T00:53:36;2.35;;;1.88;;
55314;SDS011;41619;42.816;23.226;2023-03-01T00:56:02;3.08;;;1.95;;
55314;SDS011;41619;42.816;23.226;2023-03-01T00:58:29;2.40;;;1.90;;
55314;SDS011;41619;42.816;23.226;2023-03-01T01:00:54;2.63;;;1.95;;
55314;SDS011;41619;42.816;23.226;2023-03-01T01:03:20;2.75;;;1.88;;
55314;SDS011;41619;42.816;23.226;2023-03-01T01:05:46;6.30;;;2.10;;
55314;SDS011;41619;42.816;23.226;2023-03-01T01:08:11;2.42;;;1.73;;
55314;SDS011;41619;42.816;23.226;2023-03-01T01:10:37;2.58;;;2.08;;
55314;SDS011;41619;42.816;23.226;2023-03-01T01:13:02;2.05;;;1.70;;
55314;SDS011;41619;42.816;23.226;2023-03-01T01:15:28;1.92;;;1.73;;
55314;SDS011;41619;42.816;23.226;2023-03-01T01:17:54;2.22;;;1.70;;
55314;SDS011;41619;42.816;23.226;2023-03-01T01:20:19;2.33;;;1.83;;
55314;SDS011;41619;42.816;23.226;2023-03-01T01:22:45;2.60;;;1.75;;
55314;SDS011;41619;42.816;23.226;2023-03-01T01:25:10;1.75;;;1.60;;
55314;SDS011;41619;42.816;23.226;2023-03-01T01:27:36;2.45;;;2.10;;
55314;SDS011;41619;42.816;23.226;2023-03-01T01:30:02;2.47;;;1.90;;
55314;SDS011;41619;42.816;23.226;2023-03-01T01:32:29;2.28;;;1.70;;
55314;SDS011;41619;42.816;23.226;2023-03-01T01:34:54;2.78;;;1.90;;
55314;SDS011;41619;42.816;23.226;2023-03-01T01:37:20;3.95;;;1.83;;
55314;SDS011;41619;42.816;23.226;2023-03-01T01:39:45;2.95;;;2.20;;
55314;SDS011;41619;42.816;23.226;2023-03-01T01:42:15;2.88;;;2.08;;
55314;SDS011;41619;42.816;23.226;2023-03-01T01:44:42;3.35;;;2.08;;
55314;SDS011;41619;42.816;23.226;2023-03-01T01:47:12;1.98;;;1.77;;
55314;SDS011;41619;42.816;23.226;2023-03-01T01:50:02;3.22;;;1.73;;
55314;SDS011;41619;42.816;23.226;2023-03-01T01:52:27;3.08;;;2.00;;
55314;SDS011;41619;42.816;23.226;2023-03-01T01:54:58;2.17;;;1.70;;
55314;SDS011;41619;42.816;23.226;2023-03-01T01:57:36;1.88;;;1.48;;
55314;SDS011;41619;42.816;23.226;2023-03-01T02:00:07;2.50;;;1.90;;
55314;SDS011;41619;42.816;23.226;2023-03-01T02:02:35;3.70;;;1.90;;
55314;SDS011;41619;42.816;23.226;2023-03-01T02:05:04;3.00;;;1.70;;
55314;SDS011;41619;42.816;23.226;2023-03-01T02:07:36;2.38;;;1.58;;
55314;SDS011;41619;42.816;23.226;2023-03-01T02:10:05;2.15;;;1.80;;
55314;SDS011;41619;42.816;23.226;2023-03-01T02:12:31;2.20;;;1.60;;
55314;SDS011;41619;42.816;23.226;2023-03-01T02:14:57;2.28;;;1.80;;
55314;SDS011;41619;42.816;23.226;2023-03-01T02:17:23;4.82;;;1.90;;
55314;SDS011;41619;42.816;23.226;2023-03-01T02:27:51;1.95;;;1.50;;
55314;SDS011;41619;42.816;23.226;2023-03-01T02:30:24;4.05;;;1.67;;
55314;SDS011;41619;42.816;23.226;2023-03-01T02:32:50;2.20;;;1.33;;
55314;SDS011;41619;42.816;23.226;2023-03-01T02:35:18;3.88;;;1.50;;
55314;SDS011;41619;42.816;23.226;2023-03-01T02:37:44;2.15;;;1.77;;
55314;SDS011;41619;42.816;23.226;2023-03-01T02:40:11;2.17;;;1.60;;
55314;SDS011;41619;42.816;23.226;2023-03-01T02:42:45;6.57;;;3.20;;
55314;SDS011;41619;42.816;23.226;2023-03-01T02:45:16;3.38;;;1.50;;
55314;SDS011;41619;42.816;23.226;2023-03-01T02:47:41;1.67;;;1.58;;
55314;SDS011;41619;42.816;23.226;2023-03-01T02:50:22;3.30;;;1.80;;
55314;SDS011;41619;42.816;23.226;2023-03-01T02:53:02;3.17;;;1.80;;
55314;SDS011;41619;42.816;23.226;2023-03-01T02:55:33;2.42;;;1.75;;
55314;SDS011;41619;42.816;23.226;2023-03-01T02:57:58;1.58;;;1.48;;
55314;SDS011;41619;42.816;23.226;2023-03-01T03:00:28;2.97;;;1.80;;
55314;SDS011;41619;42.816;23.226;2023-03-01T03:03:15;1.55;;;1.45;;
55314;SDS011;41619;42.816;23.226;2023-03-01T03:05:42;1.95;;;1.52;;
55314;SDS011;41619;42.816;23.226;2023-03-01T03:08:08;2.45;;;1.60;;
55314;SDS011;41619;42.816;23.226;2023-03-01T03:10:35;2.00;;;1.20;;
55314;SDS011;41619;42.816;23.226;2023-03-01T03:13:03;1.52;;;1.42;;
55314;SDS011;41619;42.816;23.226;2023-03-01T03:15:37;1.70;;;1.60;;
55314;SDS011;41619;42.816;23.226;2023-03-01T03:18:04;1.63;;;1.52;;
55314;SDS011;41619;42.816;23.226;2023-03-01T03:20:33;1.50;;;1.40;;
55314;SDS011;41619;42.816;23.226;2023-03-01T03:22:59;1.85;;;1.40;;
55314;SDS011;41619;42.816;23.226;2023-03-01T03:25:25;1.77;;;1.60;;
55314;SDS011;41619;42.816;23.226;2023-03-01T03:27:52;1.70;;;1.40;;
55314;SDS011;41619;42.816;23.226;2023-03-01T03:30:22;1.90;;;1.70;;
55314;SDS011;41619;42.816;23.226;2023-03-01T03:32:49;2.00;;;1.80;;
55314;SDS011;41619;42.816;23.226;2023-03-01T03:35:22;3.38;;;2.42;;
55314;SDS011;41619;42.816;23.226;2023-03-01T03:37:49;2.63;;;1.85;;
55314;SDS011;41619;42.816;23.226;2023-03-01T03:40:28;2.72;;;1.70;;
55314;SDS011;41619;42.816;23.226;2023-03-01T03:43:02;2.45;;;1.88;;
55314;SDS011;41619;42.816;23.226;2023-03-01T03:45:29;2.13;;;1.40;;
55314;SDS011;41619;42.816;23.226;2023-03-01T03:47:58;1.73;;;1.38;;
55314;SDS011;41619;42.816;23.226;2023-03-01T03:50:23;2.38;;;1.40;;
55314;SDS011;41619;42.816;23.226;2023-03-01T03:52:48;2.55;;;1.73;;
55314;SDS011;41619;42.816;23.226;2023-03-01T03:55:14;2.42;;;2.13;;
55314;SDS011;41619;42.816;23.226;2023-03-01T03:57:44;3.42;;;2.03;;
55314;SDS011;41619;42.816;23.226;2023-03-01T04:00:15;2.05;;;1.50;;
55314;SDS011;41619;42.816;23.226;2023-03-01T04:02:44;1.70;;;1.48;;
55314;SDS011;41619;42.816;23.226;2023-03-01T04:05:13;2.40;;;1.55;;
55314;SDS011;41619;42.816;23.226;2023-03-01T04:07:40;2.55;;;1.60;;
55314;SDS011;41619;42.816;23.226;2023-03-01T04:10:08;1.33;;;1.23;;
55314;SDS011;41619;42.816;23.226;2023-03-01T04:12:35;2.05;;;1.40;;
55314;SDS011;41619;42.816;23.226;2023-03-01T04:15:02;4.50;;;2.38;;
55314;SDS011;41619;42.816;23.226;2023-03-01T04:17:37;1.83;;;1.58;;
55314;SDS011;41619;42.816;23.226;2023-03-01T04:20:08;4.68;;;1.30;;
55314;SDS011;41619;42.816;23.226;2023-03-01T04:22:36;5.28;;;1.50;;
55314;SDS011;41619;42.816;23.226;2023-03-01T04:25:02;1.98;;;1.60;;
55314;SDS011;41619;42.816;23.226;2023-03-01T04:27:27;2.60;;;1.70;;
55314;SDS011;41619;42.816;23.226;2023-03-01T04:29:52;1.60;;;1.50;;
55314;SDS011;41619;42.816;23.226;2023-03-01T04:32:18;1.95;;;1.17;;
55314;SDS011;41619;42.816;23.226;2023-03-01T04:34:43;2.25;;;1.17;;
55314;SDS011;41619;42.816;23.226;2023-03-01T04:37:08;2.47;;;1.10;;
55314;SDS011;41619;42.816;23.226;2023-03-01T04:39:34;5.10;;;1.27;;
55314;SDS011;41619;42.816;23.226;2023-03-01T04:42:10;2.75;;;0.98;;
55314;SDS011;41619;42.816;23.226;2023-03-01T04:44:36;1.50;;;1.05;;
55314;SDS011;41619;42.816;23.226;2023-03-01T04:47:01;1.10;;;1.00;;
55314;SDS011;41619;42.816;23.226;2023-03-01T04:49:26;3.03;;;1.20;;
55314;SDS011;41619;42.816;23.226;2023-03-01T04:51:52;2.70;;;1.23;;
55314;SDS011;41619;42.816;23.226;2023-03-01T04:54:17;1.08;;;0.90;;
55314;SDS011;41619;42.816;23.226;2023-03-01T04:56:43;1.08;;;0.93;;
55314;SDS011;41619;42.816;23.226;2023-03-01T04:59:08;1.73;;;1.20;;
55314;SDS011;41619;42.816;23.226;2023-03-01T05:01:35;1.77;;;1.00;;
55314;SDS011;41619;42.816;23.226;2023-03-01T05:04:01;2.38;;;1.23;;
55314;SDS011;41619;42.816;23.226;2023-03-01T05:06:28;0.82;;;0.82;;
55314;SDS011;41619;42.816;23.226;2023-03-01T05:08:53;1.33;;;1.10;;
55314;SDS011;41619;42.816;23.226;2023-03-01T05:11:19;4.57;;;2.53;;
55314;SDS011;41619;42.816;23.226;2023-03-01T05:13:44;3.70;;;1.60;;
55314;SDS011;41619;42.816;23.226;2023-03-01T05:16:10;2.10;;;1.60;;
55314;SDS011;41619;42.816;23.226;2023-03-01T05:18:38;1.83;;;1.50;;
55314;SDS011;41619;42.816;23.226;2023-03-01T05:21:10;5.53;;;1.60;;
55314;SDS011;41619;42.816;23.226;2023-03-01T05:23:37;2.75;;;1.92;;
55314;SDS011;41619;42.816;23.226;2023-03-01T05:26:04;1.45;;;1.20;;
55314;SDS011;41619;42.816;23.226;2023-03-01T05:28:31;1.42;;;1.10;;
55314;SDS011;41619;42.816;23.226;2023-03-01T05:30:57;1.30;;;1.20;;
55314;SDS011;41619;42.816;23.226;2023-03-01T05:33:23;1.25;;;0.90;;
55314;SDS011;41619;42.816;23.226;2023-03-01T05:35:50;6.82;;;1.30;;
55314;SDS011;41619;42.816;23.226;2023-03-01T05:38:16;2.67;;;1.50;;
55314;SDS011;41619;42.816;23.226;2023-03-01T05:40:43;3.33;;;1.70;;
55314;SDS011;41619;42.816;23.226;2023-03-01T05:43:11;4.32;;;2.05;;
55314;SDS011;41619;42.816;23.226;2023-03-01T05:45:38;1.88;;;1.48;;
55314;SDS011;41619;42.816;23.226;2023-03-01T05:48:04;5.03;;;1.60;;
55314;SDS011;41619;42.816;23.226;2023-03-01T05:50:34;2.60;;;1.50;;
55314;SDS011;41619;42.816;23.226;2023-03-01T05:53:02;1.95;;;1.38;;
55314;SDS011;41619;42.816;23.226;2023-03-01T05:55:33;5.32;;;1.90;;
55314;SDS011;41619;42.816;23.226;2023-03-01T05:58:03;1.80;;;1.50;;
55314;SDS011;41619;42.816;23.226;2023-03-01T06:00:30;1.38;;;1.27;;
55314;SDS011;41619;42.816;23.226;2023-03-01T06:02:56;2.47;;;1.63;;
55314;SDS011;41619;42.816;23.226;2023-03-01T06:05:23;2.15;;;1.85;;
55314;SDS011;41619;42.816;23.226;2023-03-01T06:07:49;3.42;;;1.45;;
55314;SDS011;41619;42.816;23.226;2023-03-01T06:10:15;2.08;;;1.67;;
55314;SDS011;41619;42.816;23.226;2023-03-01T06:12:41;1.88;;;1.55;;
55314;SDS011;41619;42.816;23.226;2023-03-01T06:15:09;2.70;;;1.80;;
55314;SDS011;41619;42.816;23.226;2023-03-01T06:17:36;36.55;;;16.88;;
55314;SDS011;41619;42.816;23.226;2023-03-01T06:20:08;67.78;;;28.85;;
55314;SDS011;41619;42.816;23.226;2023-03-01T06:22:39;53.45;;;29.40;;
55314;SDS011;41619;42.816;23.226;2023-03-01T06:25:05;126.80;;;58.17;;
55314;SDS011;41619;42.816;23.226;2023-03-01T06:27:31;49.13;;;25.60;;
55314;SDS011;41619;42.816;23.226;2023-03-01T06:29:56;6.63;;;4.20;;
55314;SDS011;41619;42.816;23.226;2023-03-01T06:32:22;4.50;;;3.63;;
55314;SDS011;41619;42.816;23.226;2023-03-01T06:34:47;3.17;;;2.50;;
55314;SDS011;41619;42.816;23.226;2023-03-01T06:37:13;3.08;;;2.50;;
55314;SDS011;41619;42.816;23.226;2023-03-01T06:39:38;3.15;;;1.75;;
55314;SDS011;41619;42.816;23.226;2023-03-01T06:42:04;2.05;;;1.80;;
55314;SDS011;41619;42.816;23.226;2023-03-01T06:44:29;1.27;;;1.17;;
55314;SDS011;41619;42.816;23.226;2023-03-01T06:46:55;2.25;;;1.30;;
55314;SDS011;41619;42.816;23.226;2023-03-01T06:49:20;3.30;;;1.45;;
55314;SDS011;41619;42.816;23.226;2023-03-01T06:51:46;1.95;;;1.33;;
55314;SDS011;41619;42.816;23.226;2023-03-01T06:54:12;34.88;;;13.32;;
55314;SDS011;41619;42.816;23.226;2023-03-01T06:56:38;14.40;;;5.80;;
55314;SDS011;41619;42.816;23.226;2023-03-01T06:59:04;3.22;;;2.42;;
55314;SDS011;41619;42.816;23.226;2023-03-01T07:01:30;3.97;;;2.17;;
55314;SDS011;41619;42.816;23.226;2023-03-01T07:03:55;2.20;;;1.80;;
55314;SDS011;41619;42.816;23.226;2023-03-01T07:06:22;4.82;;;2.15;;
55314;SDS011;41619;42.816;23.226;2023-03-01T07:08:48;3.70;;;1.90;;
55314;SDS011;41619;42.816;23.226;2023-03-01T07:11:14;3.25;;;2.03;;
55314;SDS011;41619;42.816;23.226;2023-03-01T07:13:39;2.58;;;1.80;;
55314;SDS011;41619;42.816;23.226;2023-03-01T07:16:05;2.58;;;1.75;;
55314;SDS011;41619;42.816;23.226;2023-03-01T07:18:30;5.97;;;2.33;;
55314;SDS011;41619;42.816;23.226;2023-03-01T07:20:56;4.55;;;2.30;;
55314;SDS011;41619;42.816;23.226;2023-03-01T07:23:21;5.82;;;2.90;;
55314;SDS011;41619;42.816;23.226;2023-03-01T07:25:56;10.60;;;5.10;;
55314;SDS011;41619;42.816;23.226;2023-03-01T07:28:24;8.02;;;4.20;;
55314;SDS011;41619;42.816;23.226;2023-03-01T07:30:49;13.88;;;3.97;;
55314;SDS011;41619;42.816;23.226;2023-03-01T07:33:16;8.30;;;4.15;;
55314;SDS011;41619;42.816;23.226;2023-03-01T07:35:42;9.15;;;4.70;;
55314;SDS011;41619;42.816;23.226;2023-03-01T07:38:08;4.43;;;3.10;;
55314;SDS011;41619;42.816;23.226;2023-03-01T07:40:33;5.88;;;3.60;;
55314;SDS011;41619;42.816;23.226;2023-03-01T07:42:59;21.02;;;7.00;;
55314;SDS011;41619;42.816;23.226;2023-03-01T07:45:26;17.13;;;6.63;;
55314;SDS011;41619;42.816;23.226;2023-03-01T07:47:53;20.73;;;7.03;;
55314;SDS011;41619;42.816;23.226;2023-03-01T07:50:19;19.70;;;6.53;;
55314;SDS011;41619;42.816;23.226;2023-03-01T07:52:46;3.58;;;2.30;;
55314;SDS011;41619;42.816;23.226;2023-03-01T07:55:13;5.95;;;3.08;;
55314;SDS011;41619;42.816;23.226;2023-03-01T07:57:39;13.93;;;5.60;;
55314;SDS011;41619;42.816;23.226;2023-03-01T08:00:05;3.63;;;2.22;;
55314;SDS011;41619;42.816;23.226;2023-03-01T08:02:31;8.57;;;5.20;;
55314;SDS011;41619;42.816;23.226;2023-03-01T08:04:56;4.97;;;2.95;;
55314;SDS011;41619;42.816;23.226;2023-03-01T08:07:22;22.90;;;9.88;;
55314;SDS011;41619;42.816;23.226;2023-03-01T08:09:48;12.35;;;6.50;;
55314;SDS011;41619;42.816;23.226;2023-03-01T08:12:13;7.22;;;4.00;;
55314;SDS011;41619;42.816;23.226;2023-03-01T08:14:41;10.82;;;5.63;;
55314;SDS011;41619;42.816;23.226;2023-03-01T08:17:06;13.18;;;6.00;;
55314;SDS011;41619;42.816;23.226;2023-03-01T08:19:32;6.13;;;3.00;;
55314;SDS011;41619;42.816;23.226;2023-03-01T08:21:58;9.70;;;5.00;;
55314;SDS011;41619;42.816;23.226;2023-03-01T08:24:24;10.77;;;4.30;;
55314;SDS011;41619;42.816;23.226;2023-03-01T08:26:50;12.25;;;6.03;;
55314;SDS011;41619;42.816;23.226;2023-03-01T08:29:15;24.48;;;11.80;;
55314;SDS011;41619;42.816;23.226;2023-03-01T08:31:41;14.95;;;7.47;;
55314;SDS011;41619;42.816;23.226;2023-03-01T08:34:08;16.23;;;7.18;;
55314;SDS011;41619;42.816;23.226;2023-03-01T08:36:37;13.27;;;5.88;;
55314;SDS011;41619;42.816;23.226;2023-03-01T08:39:05;44.47;;;16.98;;
55314;SDS011;41619;42.816;23.226;2023-03-01T08:41:31;9.85;;;5.32;;
55314;SDS011;41619;42.816;23.226;2023-03-01T08:43:57;24.63;;;9.30;;
55314;SDS011;41619;42.816;23.226;2023-03-01T08:46:35;7.13;;;3.60;;
55314;SDS011;41619;42.816;23.226;2023-03-01T08:49:06;17.67;;;8.20;;
55314;SDS011;41619;42.816;23.226;2023-03-01T08:51:41;10.90;;;8.77;;
55314;SDS011;41619;42.816;23.226;2023-03-01T08:54:10;6.20;;;3.13;;
55314;SDS011;41619;42.816;23.226;2023-03-01T08:56:37;9.45;;;6.40;;
55314;SDS011;41619;42.816;23.226;2023-03-01T08:59:03;6.07;;;3.95;;
55314;SDS011;41619;42.816;23.226;2023-03-01T09:01:29;6.28;;;3.63;;
55314;SDS011;41619;42.816;23.226;2023-03-01T09:03:54;13.48;;;4.85;;
55314;SDS011;41619;42.816;23.226;2023-03-01T09:06:20;15.02;;;6.75;;
55314;SDS011;41619;42.816;23.226;2023-03-01T09:08:46;9.23;;;4.07;;
55314;SDS011;41619;42.816;23.226;2023-03-01T09:11:14;12.07;;;5.57;;
55314;SDS011;41619;42.816;23.226;2023-03-01T09:13:42;12.70;;;5.05;;
55314;SDS011;41619;42.816;23.226;2023-03-01T09:16:08;4.40;;;3.53;;
55314;SDS011;41619;42.816;23.226;2023-03-01T09:18:34;12.45;;;5.75;;
55314;SDS011;41619;42.816;23.226;2023-03-01T09:21:03;15.88;;;7.82;;
55314;SDS011;41619;42.816;23.226;2023-03-01T09:23:32;13.35;;;6.93;;
55314;SDS011;41619;42.816;23.226;2023-03-01T09:26:02;18.73;;;9.98;;
55314;SDS011;41619;42.816;23.226;2023-03-01T09:28:28;16.42;;;7.82;;
55314;SDS011;41619;42.816;23.226;2023-03-01T09:30:53;33.38;;;13.73;;
55314;SDS011;41619;42.816;23.226;2023-03-01T09:33:23;27.10;;;11.80;;
55314;SDS011;41619;42.816;23.226;2023-03-01T09:35:48;11.05;;;7.15;;
55314;SDS011;41619;42.816;23.226;2023-03-01T09:38:13;20.48;;;11.57;;
55314;SDS011;41619;42.816;23.226;2023-03-01T09:40:43;12.68;;;6.25;;
55314;SDS011;41619;42.816;23.226;2023-03-01T09:43:26;19.17;;;9.63;;
55314;SDS011;41619;42.816;23.226;2023-03-01T09:45:59;6.78;;;4.47;;
55314;SDS011;41619;42.816;23.226;2023-03-01T09:48:33;5.65;;;4.30;;
55314;SDS011;41619;42.816;23.226;2023-03-01T09:51:09;5.35;;;3.80;;
55314;SDS011;41619;42.816;23.226;2023-03-01T09:53:42;6.20;;;3.05;;
55314;SDS011;41619;42.816;23.226;2023-03-01T09:56:12;5.38;;;3.58;;
55314;SDS011;41619;42.816;23.226;2023-03-01T09:58:51;4.83;;;3.37;;
55314;SDS011;41619;42.816;23.226;2023-03-01T10:07:13;3.20;;;2.85;;
55314;SDS011;41619;42.816;23.226;2023-03-01T10:10:00;4.05;;;2.97;;
55314;SDS011;41619;42.816;23.226;2023-03-01T10:12:33;4.05;;;3.17;;
55314;SDS011;41619;42.816;23.226;2023-03-01T10:23:17;51.83;;;23.13;;
55314;SDS011;41619;42.816;23.226;2023-03-01T10:25:44;5.28;;;3.45;;
55314;SDS011;41619;42.816;23.226;2023-03-01T10:28:17;3.83;;;3.10;;
55314;SDS011;41619;42.816;23.226;2023-03-01T10:30:49;5.15;;;4.15;;
55314;SDS011;41619;42.816;23.226;2023-03-01T10:35:40;3.60;;;2.75;;
55314;SDS011;41619;42.816;23.226;2023-03-01T10:38:07;6.20;;;3.33;;
55314;SDS011;41619;42.816;23.226;2023-03-01T10:40:49;2.90;;;2.67;;
55314;SDS011;41619;42.816;23.226;2023-03-01T10:43:30;7.32;;;4.30;;
55314;SDS011;41619;42.816;23.226;2023-03-01T10:46:24;7.07;;;4.03;;
55314;SDS011;41619;42.816;23.226;2023-03-01T10:51:43;11.73;;;5.13;;
55314;SDS011;41619;42.816;23.226;2023-03-01T10:56:53;6.72;;;3.88;;
55314;SDS011;41619;42.816;23.226;2023-03-01T10:59:37;3.97;;;2.53;;
55314;SDS011;41619;42.816;23.226;2023-03-01T11:02:23;15.43;;;7.07;;
55314;SDS011;41619;42.816;23.226;2023-03-01T11:04:57;6.38;;;2.90;;
55314;SDS011;41619;42.816;23.226;2023-03-01T11:07:24;4.43;;;2.65;;
55314;SDS011;41619;42.816;23.226;2023-03-01T11:09:50;7.35;;;3.65;;
55314;SDS011;41619;42.816;23.226;2023-03-01T11:12:15;3.85;;;2.70;;
55314;SDS011;41619;42.816;23.226;2023-03-01T11:14:49;3.83;;;2.20;;
55314;SDS011;41619;42.816;23.226;2023-03-01T11:17:27;5.68;;;3.05;;
55314;SDS011;41619;42.816;23.226;2023-03-01T11:20:06;5.72;;;2.90;;
55314;SDS011;41619;42.816;23.226;2023-03-01T11:22:40;3.92;;;2.08;;
55314;SDS011;41619;42.816;23.226;2023-03-01T11:25:14;5.68;;;2.28;;
55314;SDS011;41619;42.816;23.226;2023-03-01T11:27:43;4.70;;;2.60;;
55314;SDS011;41619;42.816;23.226;2023-03-01T11:35:28;2.55;;;1.80;;
55314;SDS011;41619;42.816;23.226;2023-03-01T11:40:37;2.45;;;2.05;;
55314;SDS011;41619;42.816;23.226;2023-03-01T11:52:03;3.00;;;2.20;;
55314;SDS011;41619;42.816;23.226;2023-03-01T12:06:28;10.95;;;6.97;;
55314;SDS011;41619;42.816;23.226;2023-03-01T12:11:47;9.43;;;4.38;;
55314;SDS011;41619;42.816;23.226;2023-03-01T12:14:42;12.82;;;5.47;;
55314;SDS011;41619;42.816;23.226;2023-03-01T12:29:07;12.00;;;3.20;;
55314;SDS011;41619;42.816;23.226;2023-03-01T12:43:10;15.70;;;7.68;;
55314;SDS011;41619;42.816;23.226;2023-03-01T12:51:08;16.92;;;9.10;;
55314;SDS011;41619;42.816;23.226;2023-03-01T12:53:40;9.95;;;4.38;;
55314;SDS011;41619;42.816;23.226;2023-03-01T12:56:09;14.85;;;6.70;;
55314;SDS011;41619;42.816;23.226;2023-03-01T12:58:46;20.50;;;7.78;;
55314;SDS011;41619;42.816;23.226;2023-03-01T13:01:39;8.10;;;4.20;;
55314;SDS011;41619;42.816;23.226;2023-03-01T13:04:08;8.43;;;4.80;;
55314;SDS011;41619;42.816;23.226;2023-03-01T13:17:48;8.77;;;4.55;;
55314;SDS011;41619;42.816;23.226;2023-03-01T13:20:45;4.55;;;3.03;;
55314;SDS011;41619;42.816;23.226;2023-03-01T13:34:39;4.63;;;3.63;;
55314;SDS011;41619;42.816;23.226;2023-03-01T13:37:10;7.10;;;4.40;;
55314;SDS011;41619;42.816;23.226;2023-03-01T13:39:45;4.53;;;3.17;;
55314;SDS011;41619;42.816;23.226;2023-03-01T13:45:20;11.65;;;6.63;;
55314;SDS011;41619;42.816;23.226;2023-03-01T13:47:46;9.32;;;5.80;;
55314;SDS011;41619;42.816;23.226;2023-03-01T13:50:25;7.57;;;4.55;;
55314;SDS011;41619;42.816;23.226;2023-03-01T13:52:55;3.67;;;2.70;;
55314;SDS011;41619;42.816;23.226;2023-03-01T13:55:29;8.23;;;4.53;;
55314;SDS011;41619;42.816;23.226;2023-03-01T13:58:04;12.93;;;5.90;;
55314;SDS011;41619;42.816;23.226;2023-03-01T14:00:39;8.85;;;4.30;;
55314;SDS011;41619;42.816;23.226;2023-03-01T14:03:16;9.52;;;4.38;;
55314;SDS011;41619;42.816;23.226;2023-03-01T14:05:50;19.70;;;10.25;;
55314;SDS011;41619;42.816;23.226;2023-03-01T14:08:25;11.80;;;7.78;;
55314;SDS011;41619;42.816;23.226;2023-03-01T14:10:56;14.73;;;8.45;;
55314;SDS011;41619;42.816;23.226;2023-03-01T14:21:43;18.55;;;8.02;;
55314;SDS011;41619;42.816;23.226;2023-03-01T14:24:21;13.27;;;7.25;;
55314;SDS011;41619;42.816;23.226;2023-03-01T14:26:48;11.65;;;6.32;;
55314;SDS011;41619;42.816;23.226;2023-03-01T14:29:25;9.95;;;6.07;;
55314;SDS011;41619;42.816;23.226;2023-03-01T14:32:11;19.52;;;10.00;;
55314;SDS011;41619;42.816;23.226;2023-03-01T14:34:49;13.18;;;6.30;;
55314;SDS011;41619;42.816;23.226;2023-03-01T14:37:23;14.77;;;7.45;;
55314;SDS011;41619;42.816;23.226;2023-03-01T14:39:54;14.60;;;6.10;;
55314;SDS011;41619;42.816;23.226;2023-03-01T14:42:21;12.80;;;6.13;;
55314;SDS011;41619;42.816;23.226;2023-03-01T14:44:50;14.70;;;5.50;;
55314;SDS011;41619;42.816;23.226;2023-03-01T14:47:38;18.87;;;10.87;;
55314;SDS011;41619;42.816;23.226;2023-03-01T14:50:21;14.57;;;7.80;;
55314;SDS011;41619;42.816;23.226;2023-03-01T14:52:52;15.55;;;8.70;;
55314;SDS011;41619;42.816;23.226;2023-03-01T14:55:25;27.35;;;12.27;;
55314;SDS011;41619;42.816;23.226;2023-03-01T14:57:54;13.00;;;6.50;;
55314;SDS011;41619;42.816;23.226;2023-03-01T15:00:23;9.75;;;5.22;;
55314;SDS011;41619;42.816;23.226;2023-03-01T15:02:51;10.60;;;5.05;;
55314;SDS011;41619;42.816;23.226;2023-03-01T15:07:55;12.77;;;5.28;;
55314;SDS011;41619;42.816;23.226;2023-03-01T15:10:35;7.60;;;4.22;;
55314;SDS011;41619;42.816;23.226;2023-03-01T15:13:21;12.52;;;5.40;;
55314;SDS011;41619;42.816;23.226;2023-03-01T15:15:48;10.88;;;4.70;;
55314;SDS011;41619;42.816;23.226;2023-03-01T15:18:25;12.85;;;5.47;;
55314;SDS011;41619;42.816;23.226;2023-03-01T15:20:53;11.07;;;5.72;;
55314;SDS011;41619;42.816;23.226;2023-03-01T15:25:48;10.30;;;5.82;;
55314;SDS011;41619;42.816;23.226;2023-03-01T15:28:22;8.73;;;4.82;;
55314;SDS011;41619;42.816;23.226;2023-03-01T15:30:57;8.23;;;3.75;;
55314;SDS011;41619;42.816;23.226;2023-03-01T15:33:38;13.23;;;3.80;;
55314;SDS011;41619;42.816;23.226;2023-03-01T15:36:50;6.68;;;4.70;;
55314;SDS011;41619;42.816;23.226;2023-03-01T15:38:58;7.10;;;3.72;;
55314;SDS011;41619;42.816;23.226;2023-03-01T15:41:28;8.35;;;4.03;;
55314;SDS011;41619;42.816;23.226;2023-03-01T15:44:25;10.05;;;3.65;;
55314;SDS011;41619;42.816;23.226;2023-03-01T15:46:51;7.55;;;4.35;;
55314;SDS011;41619;42.816;23.226;2023-03-01T15:49:50;9.90;;;4.20;;
55314;SDS011;41619;42.816;23.226;2023-03-01T15:52:14;9.38;;;4.25;;
55314;SDS011;41619;42.816;23.226;2023-03-01T15:54:53;17.92;;;6.88;;
55314;SDS011;41619;42.816;23.226;2023-03-01T15:57:20;21.70;;;11.02;;
55314;SDS011;41619;42.816;23.226;2023-03-01T15:59:45;33.72;;;15.40;;
55314;SDS011;41619;42.816;23.226;2023-03-01T16:02:11;11.98;;;6.80;;
55314;SDS011;41619;42.816;23.226;2023-03-01T16:04:38;20.50;;;11.07;;
55314;SDS011;41619;42.816;23.226;2023-03-01T16:07:04;24.55;;;11.23;;
55314;SDS011;41619;42.816;23.226;2023-03-01T16:09:30;12.93;;;6.07;;
55314;SDS011;41619;42.816;23.226;2023-03-01T16:11:55;14.02;;;6.40;;
55314;SDS011;41619;42.816;23.226;2023-03-01T16:14:21;9.60;;;4.68;;
55314;SDS011;41619;42.816;23.226;2023-03-01T16:16:47;12.80;;;6.82;;
55314;SDS011;41619;42.816;23.226;2023-03-01T16:19:15;13.10;;;5.57;;
55314;SDS011;41619;42.816;23.226;2023-03-01T16:21:41;11.23;;;5.00;;
55314;SDS011;41619;42.816;23.226;2023-03-01T16:24:08;10.40;;;4.53;;
55314;SDS011;41619;42.816;23.226;2023-03-01T16:26:34;10.60;;;5.80;;
55314;SDS011;41619;42.816;23.226;2023-03-01T16:29:01;11.65;;;7.40;;
55314;SDS011;41619;42.816;23.226;2023-03-01T16:31:26;7.97;;;4.45;;
55314;SDS011;41619;42.816;23.226;2023-03-01T16:33:54;15.57;;;7.75;;
55314;SDS011;41619;42.816;23.226;2023-03-01T16:36:20;10.35;;;5.03;;
55314;SDS011;41619;42.816;23.226;2023-03-01T16:38:48;10.00;;;4.90;;
55314;SDS011;41619;42.816;23.226;2023-03-01T16:41:15;11.02;;;5.15;;
55314;SDS011;41619;42.816;23.226;2023-03-01T16:43:43;9.55;;;4.95;;
55314;SDS011;41619;42.816;23.226;2023-03-01T16:46:09;15.43;;;5.43;;
55314;SDS011;41619;42.816;23.226;2023-03-01T16:48:37;14.63;;;5.97;;
55314;SDS011;41619;42.816;23.226;2023-03-01T16:51:03;29.33;;;11.85;;
55314;SDS011;41619;42.816;23.226;2023-03-01T16:53:28;14.02;;;6.75;;